Aviation Digital Data Service (ADDS)

Output produced by METARs form (1315 UTC 15 November 2018)
found at http://www.aviationweather.gov/metar/data/
 
GVAC 151300Z 06016KT 9999 BKN014 27/16 Q1015 NOSIG
TAF GVAC 151100Z 1512/1618 05014KT 9999 SCT014 
     PROB30 
     TEMPO 1602/1606 05004KT
       
GVBA 151300Z 03014KT 9999 BKN014 26/16 Q1015 NOSIG
TAF GVBA 151100Z 1512/1618 04015KT 9999 SCT015 
     PROB30 
     TEMPO 1602/1606 04005KT
       
GVSV 151300Z 08015KT 9999 SCT022 BKN025 26/16 Q1015 NOSIG
TAF GVSV 151100Z 1512/1618 07017KT 9999 SCT020 
     PROB30 
     TEMPO 1602/1606 07007KT